Relevés horaires Matro (Suisse)


Relevés horaires à Matro - Vendredi 07 Nov. 2014
Heure UTC1 Température [°C] Vent [km/h] Hum. [%] Pres.4 [hPa] Visi. [Km] Nébu. [octa] Préc.5 [mm] Cond.
2m. Res. Ros. Dir.2 Vit. Moy. Raf.3
23:00 2.1 2.1 0.2 NO 3.7 13.0 16.7 87 850(0.3/3h) -- -- -- --
22:00 2.0 0.4 1.4 N 5.6 5.6 7.4 96 850(0.4/3h) -- -- -- --
21:00 2.4 2.4 1.2 SO 1.9 13.0 14.8 92 850(0.8/3h) -- -- -- --
20:00 2.5 -0.2 1.6 SSE 9.3 13.0 14.8 94 850(0.7/3h) -- -- -- --
19:00 2.6 -0.8 1.3 SSE 13.0 13.0 14.8 91 850(1.4/3h) -- -- -- --
18:00 2.6 0.5 0.5 ENE 7.4 18.5 25.9 86 850(1.3/3h) -- -- -- --
17:00 2.4 0.3 1.2 E 7.4 7.4 9.3 92 850(1.0/3h) -- -- -- --
16:00 2.6 2.6 1.1 E 3.7 9.3 13.0 90 850(0.2/3h) -- -- -- --
15:00 2.8 -0.2 0.8 SSE 11.1 18.5 25.9 87 850(-0.2/3h) -- -- -- --
14:00 2.5 0.4 2.0 SE 7.4 14.8 20.4 96 850(-0.2/3h) -- -- -- --
13:00 2.2 -2 1.1 S 16.7 18.5 25.9 92 850(-0.4/3h) -- -- -- --
12:00 2.2 -2.8 2.0 SSE 22.2 29.6 37.0 99 850(-0.2/3h) -- -- -- --
11:00 2.1 -3.1 1.4 SSE 24.1 24.1 29.6 95 850(0.0/3h) -- -- -- --
10:00 1.7 -3.2 1.7 SSE 20.4 24.1 31.5 100 850(0.7/3h) -- -- -- --
09:00 1.4 -4 1.4 SE 24.1 25.9 31.5 100 850(1.0/3h) -- -- -- --
08:00 1.5 -3.4 1.0 SSE 20.4 22.2 25.9 96 850(1.1/3h) -- -- -- --
07:00 1.7 -3.2 1.5 SSE 20.4 25.9 29.6 99 850(0.5/3h) -- -- -- --
06:00 1.6 -3.3 0.7 SSE 20.4 22.2 25.9 94 850(-0.2/3h) -- -- -- --
05:00 1.5 -3.4 1.0 SSE 20.4 22.2 25.9 96 850(-0.7/3h) -- -- -- --
04:00 1.9 -2.9 1.0 SSE 20.4 20.4 24.1 94 850(-0.6/3h) -- -- -- --
03:00 1.9 -2.4 0.7 S 16.7 20.4 24.1 92 850(-1.0/3h) -- -- -- --
02:00 1.6 -2.7 1.4 SSE 16.7 16.7 18.5 99 850(-0.6/3h) -- -- -- --
01:00 2.0 -1.9 0.8 S 14.8 20.4 24.1 92 850(0.0/3h) -- -- -- --
00:00 1.6 -3.3 0.1 S 20.4 24.1 25.9 90 850(0.2/3h) -- -- -- --

1 Coordinated Universal Time. Actuellement il est 06:00 locale et 04:00 UTC.

2 Le vent souffle depuis la direction indiquée vers la direction oposée.

3 Les rafales max. sont disponible 40 min après l'heure du relevé.

4 Pour les stations d'altitude (plus de 600m) le géopotentiel du niveau le plus proche de la pression obligatoire est indiqué.

5 Les stations disposant d'un diffuseur peuvent indiquer "trace". Cela signifie que des précipitations ont touchés le sol mais que la quantité est inférieure à 0.1 mm.

Copyright

Les données affichées sur cette page sont la propriété exclusive de Météo Suisse.

Récapitulatif de la journée
Température [°C] Vent [km/h] Ensoleillement4 [h] Precipitations totale5 [mm] Pression [Hpa]
Min1 Max.2 Moy.3 Max. Min Max.
0.5 2.8 18.5 37.0 0 h 18 min 0 850.0 850.0

1 Température minimale relevée entre 18:00 UTC la veille et 18:00 UTC le jour donné.

2 Température maximale relevée entre 06:00 UTC le jour donné et 06:00 UTC le lendemain.

3 Vent moyen de la journée basé sur les relevés horaires.

4 Ensoleillement en heures relevé entre 06:00 UTC la veille et 06:00 UTC le jour donné.

5 Précipitations totales tombées entre 06:00 UTC la jour donné et 06:00 UTC le lendemain.

Graphiques horaires